»·PEaware :: AAL343 KLAS-KSFO

AAL343 :: KLAS-KSFO

FLIGHT INFORMATION

Flight Status: Arrived
Operator:
American Airlines
More flights by this operator :: More flights under this callsign
Pilot: James W. (12414)
Aircraft: AIRBUS A320
(A320)
More flights by this aircraft type
Origin: KLAS McCarran Intl
United States
Destination: KSFO San Francisco Intl
United States
More flights between these airports :: More routes between these airports
Route: +SHEAD9 KENNO RUSME DYAMD3
File this flight plan on PilotEdge
Remarks:
Altitude:
(Current/Filed)
26,000ft
Speed:
(Current/Filed)
400kts
Departed: 04-Jun-17 12:41 PM
Arrived: 04-Jun-17 01:53 PM
Distance/Time
Traveled:
359nm/1:12
Distance/Time
To Go:
Arrived

Flight Plot

Page will automatically refresh every two minutes.


Map Options




Map Legend


Flown Route
Filed Route
Departure Airport
Arrival Airport
Navaid (VOR, NDB)
Fix

Horizontal Profiles

Position Reports

Time Latitude Longitude Heading Altitude Ground
Speed
04-Jun-17 12:18 36.080575 -115.140584 134 2149ft 0kts
04-Jun-17 12:19 36.080575 -115.140584 134 2149ft 0kts
04-Jun-17 12:20 36.080575 -115.140584 134 2149ft 0kts
04-Jun-17 12:21 36.080575 -115.140584 134 2149ft 0kts
04-Jun-17 12:22 36.080575 -115.140584 134 2149ft 0kts
04-Jun-17 12:23 36.080575 -115.140584 134 2149ft 0kts
04-Jun-17 12:24 36.080575 -115.140584 134 2149ft 0kts
04-Jun-17 12:25 36.080575 -115.140584 134 2149ft 0kts
04-Jun-17 12:26 36.080575 -115.140584 134 2149ft 0kts
04-Jun-17 12:27 36.080575 -115.140584 134 2149ft 0kts
04-Jun-17 12:28 36.080575 -115.140584 134 2149ft 0kts
04-Jun-17 12:29 36.080575 -115.140584 134 2149ft 0kts
04-Jun-17 12:30 36.080575 -115.140584 134 2149ft 0kts
04-Jun-17 12:31 36.080575 -115.140584 134 2149ft 0kts
04-Jun-17 12:32 36.080575 -115.140584 134 2149ft 0kts
04-Jun-17 12:33 36.080575 -115.140584 134 2149ft 0kts
04-Jun-17 12:34 36.080603 -115.140620 135 2149ft 0kts
04-Jun-17 12:35 36.081039 -115.141110 138 2149ft 3kts
04-Jun-17 12:36 36.081383 -115.141473 140 2149ft 0kts
04-Jun-17 12:37 36.081383 -115.141473 140 2149ft 0kts
04-Jun-17 12:38 36.081021 -115.141442 186 2149ft 13kts
04-Jun-17 12:39 36.078257 -115.139020 85 2149ft 20kts
04-Jun-17 12:40 36.078222 -115.130117 88 2149ft 32kts
04-Jun-17 12:41 36.077503 -115.121611 131 2149ft 13kts
04-Jun-17 12:42 36.077287 -115.121393 152 2149ft 10kts
04-Jun-17 12:43 36.076369 -115.132887 267 2150ft 127kts
04-Jun-17 12:44 36.075662 -115.199965 265 3650ft 237kts
04-Jun-17 12:45 36.062925 -115.278272 221 6354ft 268kts
04-Jun-17 12:46 35.989122 -115.298116 198 6922ft 277kts
04-Jun-17 12:47 35.929553 -115.354159 224 8498ft 279kts
04-Jun-17 12:48 35.889029 -115.427504 267 9382ft 283kts
04-Jun-17 12:49 35.888518 -115.524455 269 10695ft 293kts
04-Jun-17 12:50 35.890279 -115.634933 269 12335ft 351kts
04-Jun-17 12:51 35.892301 -115.757768 269 14227ft 370kts
04-Jun-17 12:52 35.894346 -115.884256 269 16212ft 378kts
04-Jun-17 12:53 35.925876 -116.002294 311 18242ft 400kts
04-Jun-17 12:54 36.004108 -116.095620 311 20181ft 407kts
04-Jun-17 12:55 36.082149 -116.185345 310 22094ft 409kts
04-Jun-17 12:56 36.164186 -116.280178 310 24049ft 414kts
04-Jun-17 12:57 36.246494 -116.375644 310 25747ft 425kts
04-Jun-17 12:58 36.332652 -116.475851 310 25970ft 446kts
04-Jun-17 12:59 36.420101 -116.577925 310 25968ft 447kts
04-Jun-17 13:00 36.508126 -116.681374 310 25969ft 446kts
04-Jun-17 13:01 36.599958 -116.774658 322 25965ft 457kts
04-Jun-17 13:02 36.704197 -116.854400 322 25967ft 457kts
04-Jun-17 13:03 36.810477 -116.935380 322 25967ft 457kts
04-Jun-17 13:04 36.916874 -117.016693 322 25967ft 457kts
04-Jun-17 13:05 37.016905 -117.093406 322 25989ft 458kts
04-Jun-17 13:06 37.115425 -117.168717 321 26051ft 456kts
04-Jun-17 13:07 37.220471 -117.249721 321 26050ft 455kts
04-Jun-17 13:08 37.323255 -117.335602 311 26054ft 446kts
04-Jun-17 13:09 37.414687 -117.434687 313 26050ft 447kts
04-Jun-17 13:10 37.491160 -117.546926 278 26056ft 420kts
04-Jun-17 13:11 37.507669 -117.688109 272 26050ft 415kts
04-Jun-17 13:12 37.519246 -117.826610 272 26017ft 415kts
04-Jun-17 13:13 37.530565 -117.967537 272 25995ft 416kts
04-Jun-17 13:14 37.541252 -118.102771 271 25995ft 416kts
04-Jun-17 13:15 37.551242 -118.226104 271 25995ft 415kts
04-Jun-17 13:16 37.562305 -118.367794 271 25995ft 415kts
04-Jun-17 13:17 37.572958 -118.508749 272 25995ft 416kts
04-Jun-17 13:18 37.583425 -118.649506 272 26074ft 417kts
04-Jun-17 13:19 37.593800 -118.791377 272 26211ft 415kts
04-Jun-17 13:20 37.604019 -118.933510 272 26210ft 415kts
04-Jun-17 13:21 37.614050 -119.075410 272 26210ft 415kts
04-Jun-17 13:22 37.623383 -119.204459 272 26212ft 414kts
04-Jun-17 13:23 37.632959 -119.343798 272 26211ft 414kts
04-Jun-17 13:24 37.642393 -119.484044 272 26211ft 414kts
04-Jun-17 13:25 37.651186 -119.617258 272 26067ft 415kts
04-Jun-17 13:26 37.660292 -119.757764 272 24698ft 405kts
04-Jun-17 13:27 37.669034 -119.895054 272 24050ft 401kts
04-Jun-17 13:28 37.677614 -120.032362 272 24048ft 402kts
04-Jun-17 13:29 37.685797 -120.161072 272 23977ft 401kts
04-Jun-17 13:30 37.694228 -120.298944 272 23985ft 402kts
04-Jun-17 13:31 37.699097 -120.428654 259 22889ft 359kts
04-Jun-17 13:32 37.683070 -120.545122 260 21980ft 339kts
04-Jun-17 13:33 37.669267 -120.661424 261 21985ft 339kts
04-Jun-17 13:34 37.655506 -120.776766 261 21984ft 339kts
04-Jun-17 13:35 37.642218 -120.886489 261 21878ft 339kts
04-Jun-17 13:36 37.627648 -121.002060 260 21874ft 339kts
04-Jun-17 13:37 37.612494 -121.115541 260 20087ft 329kts
04-Jun-17 13:38 37.599818 -121.212588 260 18374ft 321kts
04-Jun-17 13:39 37.586613 -121.318350 261 16405ft 298kts
04-Jun-17 13:40 37.575150 -121.417442 261 14508ft 297kts
04-Jun-17 13:41 37.563892 -121.514425 261 12545ft 281kts
04-Jun-17 13:42 37.555168 -121.605947 263 10637ft 273kts
04-Jun-17 13:43 37.536671 -121.694824 250 9248ft 268kts
04-Jun-17 13:44 37.513921 -121.781021 254 7941ft 256kts
04-Jun-17 13:45 37.493431 -121.864701 255 5838ft 249kts
04-Jun-17 13:46 37.497164 -121.942349 283 4928ft 205kts
04-Jun-17 13:47 37.508776 -122.008114 283 4935ft 204kts
04-Jun-17 13:48 37.520737 -122.076171 283 3736ft 191kts
04-Jun-17 13:49 37.530453 -122.133713 283 3116ft 145kts
04-Jun-17 13:50 37.540167 -122.182728 292 2953ft 144kts
04-Jun-17 13:51 37.556205 -122.225721 294 2275ft 131kts
04-Jun-17 13:52 37.573219 -122.266758 294 1591ft 134kts
04-Jun-17 13:53 37.590643 -122.308065 295 890ft 133kts
04-Jun-17 13:54 37.607489 -122.348187 295 199ft 124kts
04-Jun-17 13:55 37.615504 -122.368361 210 21ft 14kts
04-Jun-17 13:56 37.614878 -122.369584 294 21ft 9kts
04-Jun-17 13:57 37.617858 -122.377466 291 21ft 22kts
04-Jun-17 13:58 37.617851 -122.380648 258 21ft 0kts

Navigation Log

Ident Type
1. KLAS Airport
2. MDDOG Fix
3. TARRK Fix
4. SHEAD Fix
5. DBIGE Fix
6. BIKKR Fix
7. KENNO Fix
8. RUSME Fix
9. KSFO Airport